sensor_id;sensor_type;location;lat;lon;timestamp;pressure;altitude;pressure_sealevel;temperature;humidity
6224;BME280;3145;42.726;23.342;2023-03-04T00:00:06;95313.88;;;5.82;nan
6224;BME280;3145;42.726;23.342;2023-03-04T00:02:33;95377.50;;;6.27;nan
6224;BME280;3145;42.726;23.342;2023-03-04T00:04:59;95388.66;;;6.29;nan
6224;BME280;3145;42.726;23.342;2023-03-04T00:07:28;95386.06;;;6.29;nan
6224;BME280;3145;42.726;23.342;2023-03-04T00:09:55;95385.22;;;6.28;nan
6224;BME280;3145;42.726;23.342;2023-03-04T00:12:21;95386.69;;;6.31;nan
6224;BME280;3145;42.726;23.342;2023-03-04T00:14:48;95385.91;;;6.30;nan
6224;BME280;3145;42.726;23.342;2023-03-04T00:17:16;95375.84;;;6.26;nan
6224;BME280;3145;42.726;23.342;2023-03-04T00:19:43;95374.06;;;6.26;nan
6224;BME280;3145;42.726;23.342;2023-03-04T00:22:09;95386.06;;;6.29;nan
6224;BME280;3145;42.726;23.342;2023-03-04T00:24:36;95381.47;;;6.31;nan
6224;BME280;3145;42.726;23.342;2023-03-04T00:27:03;95382.44;;;6.30;nan
6224;BME280;3145;42.726;23.342;2023-03-04T00:29:29;95375.00;;;6.25;nan
6224;BME280;3145;42.726;23.342;2023-03-04T00:31:56;95371.88;;;6.22;nan
6224;BME280;3145;42.726;23.342;2023-03-04T00:34:24;95362.81;;;6.16;nan
6224;BME280;3145;42.726;23.342;2023-03-04T00:36:51;95367.22;;;6.16;nan
6224;BME280;3145;42.726;23.342;2023-03-04T00:39:18;95370.25;;;6.21;nan
6224;BME280;3145;42.726;23.342;2023-03-04T00:41:44;95365.81;;;6.21;nan
6224;BME280;3145;42.726;23.342;2023-03-04T00:44:11;95362.22;;;6.22;nan
6224;BME280;3145;42.726;23.342;2023-03-04T00:46:38;95365.34;;;6.26;nan
6224;BME280;3145;42.726;23.342;2023-03-04T00:49:04;95363.56;;;6.26;nan
6224;BME280;3145;42.726;23.342;2023-03-04T00:51:33;95364.69;;;6.24;nan
6224;BME280;3145;42.726;23.342;2023-03-04T00:53:59;95358.63;;;6.23;nan
6224;BME280;3145;42.726;23.342;2023-03-04T00:56:26;95358.78;;;6.22;nan
6224;BME280;3145;42.726;23.342;2023-03-04T00:58:53;95350.34;;;6.10;nan
6224;BME280;3145;42.726;23.342;2023-03-04T01:01:19;95325.84;;;6.02;nan
6224;BME280;3145;42.726;23.342;2023-03-04T01:03:46;95362.97;;;6.15;nan
6224;BME280;3145;42.726;23.342;2023-03-04T01:06:13;95350.16;;;6.12;nan
6224;BME280;3145;42.726;23.342;2023-03-04T01:08:41;95356.38;;;6.11;nan
6224;BME280;3145;42.726;23.342;2023-03-04T01:11:08;95353.75;;;6.11;nan
6224;BME280;3145;42.726;23.342;2023-03-04T01:13:34;95358.25;;;6.18;nan
6224;BME280;3145;42.726;23.342;2023-03-04T01:16:01;95360.28;;;6.07;nan
6224;BME280;3145;42.726;23.342;2023-03-04T01:18:29;95346.88;;;6.10;nan
6224;BME280;3145;42.726;23.342;2023-03-04T01:20:56;95356.75;;;6.16;nan
6224;BME280;3145;42.726;23.342;2023-03-04T01:23:22;95353.16;;;6.17;nan
6224;BME280;3145;42.726;23.342;2023-03-04T01:25:50;95349.19;;;6.13;nan
6224;BME280;3145;42.726;23.342;2023-03-04T01:28:17;95353.47;;;6.14;nan
6224;BME280;3145;42.726;23.342;2023-03-04T01:30:44;95348.22;;;6.14;nan
6224;BME280;3145;42.726;23.342;2023-03-04T01:33:11;95348.72;;;6.17;nan
6224;BME280;3145;42.726;23.342;2023-03-04T01:35:37;95354.81;;;6.18;nan
6224;BME280;3145;42.726;23.342;2023-03-04T01:38:04;95339.06;;;6.18;nan
6224;BME280;3145;42.726;23.342;2023-03-04T01:40:31;95340.41;;;6.22;nan
6224;BME280;3145;42.726;23.342;2023-03-04T01:42:59;95344.53;;;6.24;nan
6224;BME280;3145;42.726;23.342;2023-03-04T01:45:26;95331.25;;;6.26;nan
6224;BME280;3145;42.726;23.342;2023-03-04T01:47:53;95329.47;;;6.26;nan
6224;BME280;3145;42.726;23.342;2023-03-04T01:50:23;95323.94;;;6.12;nan
6224;BME280;3145;42.726;23.342;2023-03-04T01:52:52;95306.03;;;6.07;nan
6224;BME280;3145;42.726;23.342;2023-03-04T01:55:20;95323.34;;;6.18;nan
6224;BME280;3145;42.726;23.342;2023-03-04T01:57:48;95317.03;;;6.11;nan
6224;BME280;3145;42.726;23.342;2023-03-04T02:00:28;95324.63;;;6.14;nan
6224;BME280;3145;42.726;23.342;2023-03-04T02:02:58;95296.63;;;5.97;nan
6224;BME280;3145;42.726;23.342;2023-03-04T02:05:25;95317.03;;;6.11;nan
6224;BME280;3145;42.726;23.342;2023-03-04T02:07:54;95316.69;;;6.06;nan
6224;BME280;3145;42.726;23.342;2023-03-04T02:10:21;95319.00;;;6.09;nan
6224;BME280;3145;42.726;23.342;2023-03-04T02:12:48;95322.59;;;6.08;nan
6224;BME280;3145;42.726;23.342;2023-03-04T02:15:15;95315.06;;;6.05;nan
6224;BME280;3145;42.726;23.342;2023-03-04T02:17:43;95319.31;;;6.06;nan
6224;BME280;3145;42.726;23.342;2023-03-04T02:20:17;95321.78;;;6.07;nan
6224;BME280;3145;42.726;23.342;2023-03-04T02:22:50;95317.34;;;6.08;nan
6224;BME280;3145;42.726;23.342;2023-03-04T02:25:23;95301.72;;;5.98;nan
6224;BME280;3145;42.726;23.342;2023-03-04T02:27:53;95312.09;;;6.08;nan
6224;BME280;3145;42.726;23.342;2023-03-04T02:30:22;95314.06;;;6.06;nan
6224;BME280;3145;42.726;23.342;2023-03-04T02:32:49;95312.72;;;6.02;nan
6224;BME280;3145;42.726;23.342;2023-03-04T02:35:17;95243.84;;;5.57;nan
6224;BME280;3145;42.726;23.342;2023-03-04T02:37:44;95302.94;;;5.86;nan
6224;BME280;3145;42.726;23.342;2023-03-04T02:40:14;95293.47;;;5.76;nan
6224;BME280;3145;42.726;23.342;2023-03-04T02:42:43;95306.72;;;5.92;nan
6224;BME280;3145;42.726;23.342;2023-03-04T02:45:31;95315.88;;;5.88;nan
6224;BME280;3145;42.726;23.342;2023-03-04T02:48:00;95304.38;;;5.81;nan
6224;BME280;3145;42.726;23.342;2023-03-04T02:50:29;95306.56;;;5.76;nan
6224;BME280;3145;42.726;23.342;2023-03-04T02:52:58;95293.38;;;5.68;nan
6224;BME280;3145;42.726;23.342;2023-03-04T02:55:25;95301.66;;;5.73;nan
6224;BME280;3145;42.726;23.342;2023-03-04T02:57:52;95302.59;;;5.72;nan
6224;BME280;3145;42.726;23.342;2023-03-04T03:00:19;95295.06;;;5.69;nan
6224;BME280;3145;42.726;23.342;2023-03-04T03:02:47;95268.63;;;5.45;nan
6224;BME280;3145;42.726;23.342;2023-03-04T03:05:15;95269.59;;;5.44;nan
6224;BME280;3145;42.726;23.342;2023-03-04T03:07:42;95199.78;;;4.99;nan
6224;BME280;3145;42.726;23.342;2023-03-04T03:10:09;95311.66;;;5.60;nan
6224;BME280;3145;42.726;23.342;2023-03-04T03:12:36;95299.19;;;5.54;nan
6224;BME280;3145;42.726;23.342;2023-03-04T03:15:04;95298.41;;;5.44;nan
6224;BME280;3145;42.726;23.342;2023-03-04T03:17:31;95302.09;;;5.51;nan
6224;BME280;3145;42.726;23.342;2023-03-04T03:19:59;95301.72;;;5.46;nan
6224;BME280;3145;42.726;23.342;2023-03-04T03:22:25;95298.03;;;5.39;nan
6224;BME280;3145;42.726;23.342;2023-03-04T03:24:52;95298.03;;;5.39;nan
6224;BME280;3145;42.726;23.342;2023-03-04T03:27:19;95291.44;;;5.35;nan
6224;BME280;3145;42.726;23.342;2023-03-04T03:29:45;95294.91;;;5.35;nan
6224;BME280;3145;42.726;23.342;2023-03-04T03:32:12;95301.25;;;5.33;nan
6224;BME280;3145;42.726;23.342;2023-03-04T03:34:39;95298.66;;;5.33;nan
6224;BME280;3145;42.726;23.342;2023-03-04T03:37:07;95296.19;;;5.31;nan
6224;BME280;3145;42.726;23.342;2023-03-04T03:39:33;95280.81;;;5.19;nan
6224;BME280;3145;42.726;23.342;2023-03-04T03:42:00;95303.47;;;5.28;nan
6224;BME280;3145;42.726;23.342;2023-03-04T03:44:27;95301.19;;;5.25;nan
6224;BME280;3145;42.726;23.342;2023-03-04T03:46:54;95255.03;;;4.96;nan
6224;BME280;3145;42.726;23.342;2023-03-04T03:49:20;95277.41;;;5.08;nan
6224;BME280;3145;42.726;23.342;2023-03-04T03:51:47;95301.66;;;5.11;nan
6224;BME280;3145;42.726;23.342;2023-03-04T03:54:15;95300.31;;;5.07;nan
6224;BME280;3145;42.726;23.342;2023-03-04T03:56:42;95291.09;;;5.03;nan
6224;BME280;3145;42.726;23.342;2023-03-04T03:59:08;95294.72;;;5.02;nan
6224;BME280;3145;42.726;23.342;2023-03-04T04:01:35;95291.41;;;4.99;nan
6224;BME280;3145;42.726;23.342;2023-03-04T04:04:02;95288.13;;;4.97;nan
6224;BME280;3145;42.726;23.342;2023-03-04T04:06:29;95271.81;;;5.03;nan
6224;BME280;3145;42.726;23.342;2023-03-04T04:08:55;95283.81;;;4.96;nan
6224;BME280;3145;42.726;23.342;2023-03-04T04:11:23;95282.66;;;4.91;nan
6224;BME280;3145;42.726;23.342;2023-03-04T04:13:50;95282.38;;;4.84;nan
6224;BME280;3145;42.726;23.342;2023-03-04T04:16:17;95229.69;;;4.52;nan
6224;BME280;3145;42.726;23.342;2023-03-04T04:18:43;95278.72;;;4.77;nan
6224;BME280;3145;42.726;23.342;2023-03-04T04:21:10;95231.66;;;4.41;nan
6224;BME280;3145;42.726;23.342;2023-03-04T04:23:37;95273.41;;;4.69;nan
6224;BME280;3145;42.726;23.342;2023-03-04T04:26:04;95277.94;;;4.67;nan
6224;BME280;3145;42.726;23.342;2023-03-04T04:28:32;95279.34;;;4.62;nan
6224;BME280;3145;42.726;23.342;2023-03-04T04:30:58;95277.88;;;4.50;nan
6224;BME280;3145;42.726;23.342;2023-03-04T04:33:25;95283.94;;;4.50;nan
6224;BME280;3145;42.726;23.342;2023-03-04T04:35:52;95282.28;;;4.49;nan
6224;BME280;3145;42.726;23.342;2023-03-04T04:38:19;95279.00;;;4.47;nan
6224;BME280;3145;42.726;23.342;2023-03-04T04:40:45;95275.72;;;4.45;nan
6224;BME280;3145;42.726;23.342;2023-03-04T04:43:12;95278.88;;;4.39;nan
6224;BME280;3145;42.726;23.342;2023-03-04T04:45:40;95268.06;;;4.25;nan
6224;BME280;3145;42.726;23.342;2023-03-04T04:48:07;95285.22;;;4.37;nan
6224;BME280;3145;42.726;23.342;2023-03-04T04:50:34;95285.38;;;4.35;nan
6224;BME280;3145;42.726;23.342;2023-03-04T04:53:01;95282.09;;;4.33;nan
6224;BME280;3145;42.726;23.342;2023-03-04T04:55:27;95281.38;;;4.31;nan
6224;BME280;3145;42.726;23.342;2023-03-04T04:57:54;95284.84;;;4.32;nan
6224;BME280;3145;42.726;23.342;2023-03-04T05:00:21;95281.53;;;4.30;nan
6224;BME280;3145;42.726;23.342;2023-03-04T05:02:49;95290.22;;;4.30;nan
6224;BME280;3145;42.726;23.342;2023-03-04T05:05:16;95267.44;;;4.13;nan
6224;BME280;3145;42.726;23.342;2023-03-04T05:07:43;95299.31;;;4.26;nan
6224;BME280;3145;42.726;23.342;2023-03-04T05:10:10;95306.56;;;4.32;nan
6224;BME280;3145;42.726;23.342;2023-03-04T05:12:36;95306.56;;;4.32;nan
6224;BME280;3145;42.726;23.342;2023-03-04T05:15:04;95308.22;;;4.33;nan
6224;BME280;3145;42.726;23.342;2023-03-04T05:17:31;95309.03;;;4.34;nan
6224;BME280;3145;42.726;23.342;2023-03-04T05:19:59;95316.47;;;4.38;nan
6224;BME280;3145;42.726;23.342;2023-03-04T05:22:25;95316.31;;;4.40;nan
6224;BME280;3145;42.726;23.342;2023-03-04T05:24:52;95315.88;;;4.44;nan
6224;BME280;3145;42.726;23.342;2023-03-04T05:27:19;95313.25;;;4.44;nan
6224;BME280;3145;42.726;23.342;2023-03-04T05:29:46;95322.19;;;4.51;nan
6224;BME280;3145;42.726;23.342;2023-03-04T05:32:12;95278.78;;;4.31;nan
6224;BME280;3145;42.726;23.342;2023-03-04T05:34:39;95291.41;;;4.45;nan
6224;BME280;3145;42.726;23.342;2023-03-04T05:37:07;95324.22;;;4.67;nan
6224;BME280;3145;42.726;23.342;2023-03-04T05:39:34;95327.22;;;4.72;nan
6224;BME280;3145;42.726;23.342;2023-03-04T05:42:01;95315.50;;;4.76;nan
6224;BME280;3145;42.726;23.342;2023-03-04T05:44:27;95305.03;;;4.76;nan
6224;BME280;3145;42.726;23.342;2023-03-04T05:46:54;95326.69;;;4.95;nan
6224;BME280;3145;42.726;23.342;2023-03-04T05:49:21;95321.81;;;5.00;nan
6224;BME280;3145;42.726;23.342;2023-03-04T05:51:47;95325.00;;;5.04;nan
6224;BME280;3145;42.726;23.342;2023-03-04T05:54:15;95328.72;;;5.29;nan
6224;BME280;3145;42.726;23.342;2023-03-04T05:56:43;95268.16;;;5.14;nan
6224;BME280;3145;42.726;23.342;2023-03-04T05:59:10;95327.84;;;5.73;nan
6224;BME280;3145;42.726;23.342;2023-03-04T06:01:36;95339.84;;;5.93;nan
6224;BME280;3145;42.726;23.342;2023-03-04T06:04:03;95340.81;;;5.92;nan
6224;BME280;3145;42.726;23.342;2023-03-04T06:06:30;95346.97;;;5.83;nan
6224;BME280;3145;42.726;23.342;2023-03-04T06:08:57;95341.28;;;5.87;nan
6224;BME280;3145;42.726;23.342;2023-03-04T06:11:26;95344.72;;;5.88;nan
6224;BME280;3145;42.726;23.342;2023-03-04T06:13:52;95309.13;;;5.68;nan
6224;BME280;3145;42.726;23.342;2023-03-04T06:16:19;95345.03;;;5.85;nan
6224;BME280;3145;42.726;23.342;2023-03-04T06:18:46;95324.84;;;5.68;nan
6224;BME280;3145;42.726;23.342;2023-03-04T06:21:12;95342.56;;;5.83;nan
6224;BME280;3145;42.726;23.342;2023-03-04T06:23:39;95339.09;;;5.83;nan
6224;BME280;3145;42.726;23.342;2023-03-04T06:26:07;95335.81;;;5.81;nan
6224;BME280;3145;42.726;23.342;2023-03-04T06:28:37;95330.69;;;5.79;nan
6224;BME280;3145;42.726;23.342;2023-03-04T06:31:04;95351.91;;;5.86;nan
6224;BME280;3145;42.726;23.342;2023-03-04T06:33:31;95331.56;;;5.70;nan
6224;BME280;3145;42.726;23.342;2023-03-04T06:35:58;95361.78;;;5.92;nan
6224;BME280;3145;42.726;23.342;2023-03-04T06:38:25;95358.88;;;5.95;nan
6224;BME280;3145;42.726;23.342;2023-03-04T06:40:52;95354.16;;;5.98;nan
6224;BME280;3145;42.726;23.342;2023-03-04T06:43:19;95353.34;;;5.98;nan
6224;BME280;3145;42.726;23.342;2023-03-04T06:45:48;95256.56;;;5.52;nan
6224;BME280;3145;42.726;23.342;2023-03-04T06:48:14;95306.44;;;5.95;nan
6224;BME280;3145;42.726;23.342;2023-03-04T06:50:41;95356.16;;;6.22;nan
6224;BME280;3145;42.726;23.342;2023-03-04T06:53:08;95355.94;;;6.15;nan
6224;BME280;3145;42.726;23.342;2023-03-04T06:55:35;95359.03;;;6.36;nan
6224;BME280;3145;42.726;23.342;2023-03-04T06:58:01;95360.22;;;6.42;nan
6224;BME280;3145;42.726;23.342;2023-03-04T07:00:28;95362.13;;;6.32;nan
6224;BME280;3145;42.726;23.342;2023-03-04T07:02:57;95367.97;;;6.26;nan
6224;BME280;3145;42.726;23.342;2023-03-04T07:05:24;95370.25;;;6.21;nan
6224;BME280;3145;42.726;23.342;2023-03-04T07:07:50;95365.00;;;6.21;nan
6224;BME280;3145;42.726;23.342;2023-03-04T07:10:17;95352.53;;;6.23;nan
6224;BME280;3145;42.726;23.342;2023-03-04T07:12:44;95351.63;;;6.32;nan
6224;BME280;3145;42.726;23.342;2023-03-04T07:15:11;95375.00;;;6.25;nan
6224;BME280;3145;42.726;23.342;2023-03-04T07:17:38;95374.06;;;6.26;nan
6224;BME280;3145;42.726;23.342;2023-03-04T07:20:07;95345.41;;;5.90;nan
6224;BME280;3145;42.726;23.342;2023-03-04T07:22:34;95369.72;;;6.17;nan
6224;BME280;3145;42.726;23.342;2023-03-04T07:25:01;95370.25;;;6.21;nan
6224;BME280;3145;42.726;23.342;2023-03-04T07:27:27;95374.56;;;6.30;nan
6224;BME280;3145;42.726;23.342;2023-03-04T07:29:54;95376.66;;;6.44;nan
6224;BME280;3145;42.726;23.342;2023-03-04T07:32:21;95331.50;;;6.15;nan
6224;BME280;3145;42.726;23.342;2023-03-04T07:34:47;95373.34;;;6.42;nan
6224;BME280;3145;42.726;23.342;2023-03-04T07:37:15;95375.72;;;6.53;nan
6224;BME280;3145;42.726;23.342;2023-03-04T07:39:42;95370.06;;;6.65;nan
6224;BME280;3145;42.726;23.342;2023-03-04T07:42:09;95360.91;;;6.69;nan
6224;BME280;3145;42.726;23.342;2023-03-04T07:44:36;95373.06;;;6.96;nan
6224;BME280;3145;42.726;23.342;2023-03-04T07:47:02;95375.75;;;7.12;nan
6224;BME280;3145;42.726;23.342;2023-03-04T07:49:29;95366.72;;;7.14;nan
6224;BME280;3145;42.726;23.342;2023-03-04T07:51:56;95367.59;;;7.31;nan
6224;BME280;3145;42.726;23.342;2023-03-04T07:54:24;95362.41;;;7.47;nan
6224;BME280;3145;42.726;23.342;2023-03-04T07:56:50;95364.44;;;7.61;nan
6224;BME280;3145;42.726;23.342;2023-03-04T07:59:18;95360.81;;;7.70;nan
6224;BME280;3145;42.726;23.342;2023-03-04T08:01:44;95368.09;;;7.76;nan
6224;BME280;3145;42.726;23.342;2023-03-04T08:04:11;95349.00;;;7.74;nan
6224;BME280;3145;42.726;23.342;2023-03-04T08:06:39;95320.06;;;7.66;nan
6224;BME280;3145;42.726;23.342;2023-03-04T08:09:07;95344.09;;;7.71;nan
6224;BME280;3145;42.726;23.342;2023-03-04T08:11:36;95307.22;;;7.55;nan
6224;BME280;3145;42.726;23.342;2023-03-04T08:14:03;95350.00;;;7.89;nan
6224;BME280;3145;42.726;23.342;2023-03-04T08:16:30;95356.13;;;7.97;nan
6224;BME280;3145;42.726;23.342;2023-03-04T08:18:58;95236.56;;;7.28;nan
6224;BME280;3145;42.726;23.342;2023-03-04T08:21:27;95346.41;;;7.98;nan
6224;BME280;3145;42.726;23.342;2023-03-04T08:23:56;95345.25;;;8.00;nan
6224;BME280;3145;42.726;23.342;2023-03-04T08:26:25;95357.28;;;8.11;nan
6224;BME280;3145;42.726;23.342;2023-03-04T08:28:55;95365.63;;;7.90;nan
6224;BME280;3145;42.726;23.342;2023-03-04T08:31:22;95280.59;;;7.42;nan
6224;BME280;3145;42.726;23.342;2023-03-04T08:33:49;95331.91;;;7.86;nan
6224;BME280;3145;42.726;23.342;2023-03-04T08:36:17;95356.94;;;8.06;nan
6224;BME280;3145;42.726;23.342;2023-03-04T08:38:44;95305.13;;;7.82;nan
6224;BME280;3145;42.726;23.342;2023-03-04T08:41:11;95312.56;;;7.87;nan
6224;BME280;3145;42.726;23.342;2023-03-04T08:43:39;95329.97;;;7.88;nan
6224;BME280;3145;42.726;23.342;2023-03-04T08:46:07;95356.28;;;7.88;nan
6224;BME280;3145;42.726;23.342;2023-03-04T08:48:36;95356.59;;;7.85;nan
6224;BME280;3145;42.726;23.342;2023-03-04T08:51:06;95352.97;;;7.86;nan
6224;BME280;3145;42.726;23.342;2023-03-04T08:53:33;95358.50;;;7.59;nan
6224;BME280;3145;42.726;23.342;2023-03-04T08:56:00;95342.59;;;7.92;nan
6224;BME280;3145;42.726;23.342;2023-03-04T08:58:27;95312.34;;;7.80;nan
6224;BME280;3145;42.726;23.342;2023-03-04T09:00:53;95346.41;;;8.14;nan
6224;BME280;3145;42.726;23.342;2023-03-04T09:03:21;95349.91;;;8.22;nan
6224;BME280;3145;42.726;23.342;2023-03-04T09:05:48;95344.94;;;8.11;nan
6224;BME280;3145;42.726;23.342;2023-03-04T09:08:15;95309.41;;;8.07;nan
6224;BME280;3145;42.726;23.342;2023-03-04T09:10:42;95303.00;;;8.10;nan
6224;BME280;3145;42.726;23.342;2023-03-04T09:13:09;95332.63;;;8.36;nan
6224;BME280;3145;42.726;23.342;2023-03-04T09:15:37;95332.31;;;8.47;nan
6224;BME280;3145;42.726;23.342;2023-03-04T09:18:09;95327.38;;;8.44;nan
6224;BME280;3145;42.726;23.342;2023-03-04T09:20:37;95287.22;;;8.34;nan
6224;BME280;3145;42.726;23.342;2023-03-04T09:23:03;95201.41;;;7.93;nan
6224;BME280;3145;42.726;23.342;2023-03-04T09:25:31;95329.44;;;8.80;nan
6224;BME280;3145;42.726;23.342;2023-03-04T09:27:58;95325.63;;;8.91;nan
6224;BME280;3145;42.726;23.342;2023-03-04T09:30:24;95315.41;;;8.96;nan
6224;BME280;3145;42.726;23.342;2023-03-04T09:32:51;95315.22;;;8.97;nan
6224;BME280;3145;42.726;23.342;2023-03-04T09:35:18;95325.28;;;8.86;nan
6224;BME280;3145;42.726;23.342;2023-03-04T09:37:46;95326.56;;;9.06;nan
6224;BME280;3145;42.726;23.342;2023-03-04T09:40:16;95185.25;;;8.20;nan
6224;BME280;3145;42.726;23.342;2023-03-04T09:42:50;95293.19;;;8.90;nan
6224;BME280;3145;42.726;23.342;2023-03-04T09:45:20;95317.31;;;9.18;nan
6224;BME280;3145;42.726;23.342;2023-03-04T09:47:50;95321.97;;;9.38;nan
6224;BME280;3145;42.726;23.342;2023-03-04T09:50:19;95288.97;;;9.42;nan
6224;BME280;3145;42.726;23.342;2023-03-04T09:52:56;95295.59;;;9.38;nan
6224;BME280;3145;42.726;23.342;2023-03-04T09:55:33;95315.16;;;9.52;nan
6224;BME280;3145;42.726;23.342;2023-03-04T09:58:04;95303.34;;;9.40;nan
6224;BME280;3145;42.726;23.342;2023-03-04T10:00:38;95312.75;;;9.34;nan
6224;BME280;3145;42.726;23.342;2023-03-04T10:03:14;95187.88;;;8.36;nan
6224;BME280;3145;42.726;23.342;2023-03-04T10:05:48;95307.34;;;9.28;nan
6224;BME280;3145;42.726;23.342;2023-03-04T10:08:39;95313.25;;;9.38;nan
6224;BME280;3145;42.726;23.342;2023-03-04T10:11:12;95272.03;;;9.37;nan
6224;BME280;3145;42.726;23.342;2023-03-04T10:13:43;95296.47;;;8.92;nan
6224;BME280;3145;42.726;23.342;2023-03-04T10:16:18;95296.94;;;9.34;nan
6224;BME280;3145;42.726;23.342;2023-03-04T10:18:49;95289.59;;;9.52;nan
6224;BME280;3145;42.726;23.342;2023-03-04T10:21:22;95235.28;;;9.35;nan
6224;BME280;3145;42.726;23.342;2023-03-04T10:23:53;95283.19;;;9.47;nan
6224;BME280;3145;42.726;23.342;2023-03-04T10:26:20;95285.19;;;9.76;nan
6224;BME280;3145;42.726;23.342;2023-03-04T10:28:48;95288.78;;;9.75;nan
6224;BME280;3145;42.726;23.342;2023-03-04T10:31:19;95262.41;;;9.75;nan
6224;BME280;3145;42.726;23.342;2023-03-04T10:33:47;95272.59;;;10.00;nan
6224;BME280;3145;42.726;23.342;2023-03-04T10:36:27;95265.25;;;10.18;nan
6224;BME280;3145;42.726;23.342;2023-03-04T10:39:01;95258.25;;;10.25;nan
6224;BME280;3145;42.726;23.342;2023-03-04T10:41:29;95225.72;;;10.25;nan
6224;BME280;3145;42.726;23.342;2023-03-04T10:44:01;95179.16;;;10.09;nan
6224;BME280;3145;42.726;23.342;2023-03-04T10:46:29;95245.44;;;10.51;nan
6224;BME280;3145;42.726;23.342;2023-03-04T10:48:56;95259.38;;;10.60;nan
6224;BME280;3145;42.726;23.342;2023-03-04T10:51:24;95241.25;;;10.57;nan
6224;BME280;3145;42.726;23.342;2023-03-04T10:53:56;95220.81;;;10.51;nan
6224;BME280;3145;42.726;23.342;2023-03-04T10:56:35;95224.03;;;10.46;nan
6224;BME280;3145;42.726;23.342;2023-03-04T10:59:29;95238.59;;;10.57;nan
6224;BME280;3145;42.726;23.342;2023-03-04T11:01:56;95229.50;;;10.74;nan
6224;BME280;3145;42.726;23.342;2023-03-04T11:04:25;95237.16;;;10.83;nan
6224;BME280;3145;42.726;23.342;2023-03-04T11:06:52;95225.97;;;10.81;nan
6224;BME280;3145;42.726;23.342;2023-03-04T11:09:22;95222.31;;;10.82;nan
6224;BME280;3145;42.726;23.342;2023-03-04T11:11:52;95213.22;;;10.19;nan
6224;BME280;3145;42.726;23.342;2023-03-04T11:14:22;95210.66;;;10.33;nan
6224;BME280;3145;42.726;23.342;2023-03-04T11:16:54;95205.56;;;10.09;nan
6224;BME280;3145;42.726;23.342;2023-03-04T11:19:24;95167.69;;;9.65;nan
6224;BME280;3145;42.726;23.342;2023-03-04T11:21:54;95154.91;;;9.77;nan
6224;BME280;3145;42.726;23.342;2023-03-04T11:24:25;95055.69;;;9.53;nan
6224;BME280;3145;42.726;23.342;2023-03-04T11:26:59;95189.88;;;10.59;nan
6224;BME280;3145;42.726;23.342;2023-03-04T11:29:32;95184.16;;;10.41;nan
6224;BME280;3145;42.726;23.342;2023-03-04T11:32:06;95177.50;;;10.45;nan
6224;BME280;3145;42.726;23.342;2023-03-04T11:34:38;95185.28;;;10.24;nan
6224;BME280;3145;42.726;23.342;2023-03-04T11:37:12;95177.50;;;10.45;nan
6224;BME280;3145;42.726;23.342;2023-03-04T11:39:43;95172.81;;;10.62;nan
6224;BME280;3145;42.726;23.342;2023-03-04T11:42:19;95171.91;;;10.26;nan
6224;BME280;3145;42.726;23.342;2023-03-04T11:44:47;95162.25;;;9.81;nan
6224;BME280;3145;42.726;23.342;2023-03-04T11:47:41;95162.41;;;9.42;nan
6224;BME280;3145;42.726;23.342;2023-03-04T11:50:26;95159.66;;;9.36;nan
6224;BME280;3145;42.726;23.342;2023-03-04T11:53:08;95152.88;;;9.19;nan
6224;BME280;3145;42.726;23.342;2023-03-04T11:55:42;95144.50;;;9.15;nan
6224;BME280;3145;42.726;23.342;2023-03-04T11:58:45;95150.41;;;9.40;nan
6224;BME280;3145;42.726;23.342;2023-03-04T12:01:19;95146.50;;;9.36;nan
6224;BME280;3145;42.726;23.342;2023-03-04T12:04:06;95127.41;;;9.34;nan
6224;BME280;3145;42.726;23.342;2023-03-04T12:06:43;95139.06;;;9.77;nan
6224;BME280;3145;42.726;23.342;2023-03-04T12:09:27;95140.81;;;9.84;nan
6224;BME280;3145;42.726;23.342;2023-03-04T12:12:05;95119.03;;;9.68;nan
6224;BME280;3145;42.726;23.342;2023-03-04T12:14:47;95137.72;;;9.81;nan
6224;BME280;3145;42.726;23.342;2023-03-04T12:17:37;95131.44;;;9.82;nan
6224;BME280;3145;42.726;23.342;2023-03-04T12:20:20;95131.72;;;9.49;nan
6224;BME280;3145;42.726;23.342;2023-03-04T12:22:52;95126.69;;;9.40;nan
6224;BME280;3145;42.726;23.342;2023-03-04T12:25:41;95104.31;;;9.13;nan
6224;BME280;3145;42.726;23.342;2023-03-04T12:28:41;95126.63;;;9.48;nan
6224;BME280;3145;42.726;23.342;2023-03-04T12:31:36;95118.72;;;9.48;nan
6224;BME280;3145;42.726;23.342;2023-03-04T12:37:14;95117.19;;;9.53;nan
6224;BME280;3145;42.726;23.342;2023-03-04T12:39:50;95109.09;;;9.55;nan
6224;BME280;3145;42.726;23.342;2023-03-04T12:42:35;95106.88;;;9.44;nan
6224;BME280;3145;42.726;23.342;2023-03-04T12:45:12;95038.50;;;9.05;nan
6224;BME280;3145;42.726;23.342;2023-03-04T12:47:48;95093.81;;;9.65;nan
6224;BME280;3145;42.726;23.342;2023-03-04T12:50:30;95095.47;;;9.66;nan
6224;BME280;3145;42.726;23.342;2023-03-04T12:53:10;95086.31;;;9.77;nan
6224;BME280;3145;42.726;23.342;2023-03-04T12:55:43;95094.31;;;9.98;nan
6224;BME280;3145;42.726;23.342;2023-03-04T12:58:15;95096.03;;;9.76;nan
6224;BME280;3145;42.726;23.342;2023-03-04T13:00:48;95086.56;;;9.67;nan
6224;BME280;3145;42.726;23.342;2023-03-04T13:03:23;95089.03;;;9.83;nan
6224;BME280;3145;42.726;23.342;2023-03-04T13:08:50;95094.13;;;9.99;nan
6224;BME280;3145;42.726;23.342;2023-03-04T13:11:43;95077.19;;;9.79;nan
6224;BME280;3145;42.726;23.342;2023-03-04T13:14:33;95073.66;;;9.72;nan
6224;BME280;3145;42.726;23.342;2023-03-04T13:17:33;95049.97;;;9.49;nan
6224;BME280;3145;42.726;23.342;2023-03-04T13:20:04;95074.56;;;9.79;nan
6224;BME280;3145;42.726;23.342;2023-03-04T13:22:44;95067.28;;;9.81;nan
6224;BME280;3145;42.726;23.342;2023-03-04T13:25:35;95037.19;;;9.76;nan
6224;BME280;3145;42.726;23.342;2023-03-04T13:28:15;95061.72;;;9.91;nan
6224;BME280;3145;42.726;23.342;2023-03-04T13:33:48;95051.06;;;9.55;nan
6224;BME280;3145;42.726;23.342;2023-03-04T13:36:33;95065.63;;;9.51;nan
6224;BME280;3145;42.726;23.342;2023-03-04T13:39:03;95064.88;;;9.42;nan
6224;BME280;3145;42.726;23.342;2023-03-04T13:41:47;95055.25;;;9.12;nan
6224;BME280;3145;42.726;23.342;2023-03-04T13:44:33;95052.44;;;9.14;nan
6224;BME280;3145;42.726;23.342;2023-03-04T13:47:07;95039.34;;;9.06;nan
6224;BME280;3145;42.726;23.342;2023-03-04T13:49:35;95040.00;;;9.22;nan
6224;BME280;3145;42.726;23.342;2023-03-04T13:55:32;95046.44;;;9.20;nan
6224;BME280;3145;42.726;23.342;2023-03-04T13:57:59;95044.31;;;9.38;nan
6224;BME280;3145;42.726;23.342;2023-03-04T14:00:27;95038.94;;;9.31;nan
6224;BME280;3145;42.726;23.342;2023-03-04T14:02:54;95024.44;;;9.13;nan
6224;BME280;3145;42.726;23.342;2023-03-04T14:05:21;95035.22;;;9.26;nan
6224;BME280;3145;42.726;23.342;2023-03-04T14:07:48;94998.06;;;9.13;nan
6224;BME280;3145;42.726;23.342;2023-03-04T14:10:22;95032.28;;;9.21;nan